KCNY/CNY METAR and TAF weather

Enter ICAO airport designator
Station Type Date Time Source
KCNY METAR 2022/11/26 08:53 UTC NOAA

KCNY 260853Z AUTO 23003KT 10SM CLR M04/M08 A3017 RMK AO2 SLP225 T10441083 56015


Station Type Date Time Source
KCNY Decoded METAR 2022/11/26 08:53 UTC NOAA

MOAB CANYONLANDS FIELD, UT, United States (KCNY) 38-46N 109-45W 1390M
Nov 26, 2022 - 03:53 AM EST / 2022.11.26 0853 UTC
Wind: from the SW (230 degrees) at 3 MPH (3 KT):0
Visibility: 10 mile(s):0
Sky conditions: clear
Temperature: 24.1 F (-4.4 C)
Dew Point: 17.1 F (-8.3 C)
Relative Humidity: 74%
Pressure (altimeter): 30.17 in. Hg (1021 hPa)
Pressure tendency: 0.04 inches (1.5 hPa) lower than three hours ago
ob: KCNY 260853Z AUTO 23003KT 10SM CLR M04/M08 A3017 RMK AO2 SLP225 T10441083 56015
cycle: 9

Station Type Date Time Source
KCNY TAF 2022/11/26 06:22 UTC NOAA

TAF KCNY 260520Z 2606/2706 VRB03KT P6SM FEW250

Example: see airport list